Maersk Missouri — WAHV — position and weather

sailwx.info

Track history (hours):
 
Tides and Currents Weather Stations Pressure Air Temp Water Temp Dewpoint Dewpoint Depression Visibility Wind Speed Wind Dir Waves Ship Positions

Maersk Missouri

Owner: MAERSK LINE, LIMITED, Norfolk, VA. More information available from US FCC via Universal Licensing System and Coast Guard Vessel Documentation Center.

Last reported at 2017-Feb-25 13:04 UTC. Time now 2017-Feb-25 13:59 UTC.
Position N 39°04' W 073°58'.

Type: Cargo ship. MMSI: 369708000.

Date/timePositionNaut miles runAvg speedWind from/ knotsBaromVisibWave heightAir tempDewpointWater temp
2017-Feb-25 13:04N 39°04' W 073°58'1121.3
2017-Feb-25 12:32N 38°54' W 074°04'1221.7
2017-Feb-25 12:00N 38°42' W 074°06'1023.6 140 / 121009.1 2.2 12.511.6 6.5
2017-Feb-25 11:33N 38°35' W 074°16'2421.2
2017-Feb-25 10:26N 38°14' W 074°30'6221.4
2017-Feb-25 07:33N 37°21' W 075°10'4314.4
2017-Feb-25 04:33N 36°49' W 075°47'9 9.2
2017-Feb-25 03:33N 36°55' W 075°56'19 9.7
2017-Feb-25 01:34N 36°54' W 076°20'3 3.0
2017-Feb-25 00:33N 36°51' W 076°19'0 0.0
2017-Feb-24 23:34N 36°51' W 076°19'0 0.0
2017-Feb-24 22:34N 36°51' W 076°19'0 0.0
2017-Feb-24 21:34N 36°51' W 076°19'0 0.0
2017-Feb-24 20:33N 36°51' W 076°19'0 0.0
2017-Feb-24 19:34N 36°51' W 076°19'0 0.0
2017-Feb-24 18:34N 36°51' W 076°19'0 0.0
2017-Feb-24 17:34N 36°51' W 076°19'0 0.0
2017-Feb-24 16:33N 36°51' W 076°19'0 0.0
2017-Feb-24 15:34N 36°51' W 076°19'0 0.0
2017-Feb-24 14:33N 36°51' W 076°19'0 0.0
2017-Feb-24 13:33N 36°51' W 076°19'0 0.0
2017-Feb-24 12:34N 36°51' W 076°19'0 0.0
2017-Feb-24 11:34N 36°51' W 076°19'0 0.0
2017-Feb-24 10:33N 36°51' W 076°19'0 0.0
2017-Feb-24 09:34N 36°51' W 076°19'0 0.0
2017-Feb-24 08:33N 36°51' W 076°19'0 0.0
2017-Feb-24 07:34N 36°51' W 076°19'0 0.0
2017-Feb-24 06:34N 36°51' W 076°19'0 0.0
2017-Feb-24 05:34N 36°51' W 076°19'0 0.0
2017-Feb-24 04:34N 36°51' W 076°19'0 0.0
2017-Feb-24 03:33N 36°51' W 076°19'0 0.0
2017-Feb-24 02:33N 36°51' W 076°19'0 0.0
2017-Feb-24 01:33N 36°51' W 076°19'0 0.0
2017-Feb-24 00:33N 36°51' W 076°19'0 0.0
2017-Feb-23 23:34N 36°51' W 076°19'0 0.0
2017-Feb-23 22:34N 36°51' W 076°19'0 0.0
2017-Feb-23 21:34N 36°51' W 076°19'0 0.4
2017-Feb-23 20:33N 36°52' W 076°19'10 8.7
2017-Feb-23 19:26N 36°60' W 076°13'910.9
2017-Feb-23 18:34N 36°60' W 076°01'10717.8
2017-Feb-23 12:33N 38°45' W 076°26'1818.3
2017-Feb-23 11:33N 39°03' W 076°23'10 9.8
2017-Feb-23 10:34N 39°11' W 076°29'5 4.7
2017-Feb-23 09:33N 39°15' W 076°33'0 0.1
2017-Feb-23 08:34N 39°15' W 076°33'0 0.0
2017-Feb-23 07:34N 39°15' W 076°33'0 0.0
2017-Feb-23 06:34N 39°15' W 076°33'0 0.0
2017-Feb-23 05:34N 39°15' W 076°33'0 0.0
2017-Feb-23 04:34N 39°15' W 076°33'0 0.0
2017-Feb-23 03:34N 39°15' W 076°33'0 0.0
2017-Feb-23 02:34N 39°15' W 076°33'0 0.0
2017-Feb-23 01:34N 39°15' W 076°33'0 0.0
2017-Feb-23 00:33N 39°15' W 076°33'0 0.0
2017-Feb-22 23:33N 39°15' W 076°33'0 0.0
2017-Feb-22 22:33N 39°15' W 076°33'0 0.0
2017-Feb-22 21:33N 39°15' W 076°33'4 4.3
2017-Feb-22 20:33N 39°12' W 076°29'1211.6
2017-Feb-22 19:33N 39°01' W 076°23'2119.1
2017-Feb-22 18:29N 38°41' W 076°25'4120.3
2017-Feb-22 16:29N 38°01' W 076°12'5618.3
2017-Feb-22 13:26N 37°06' W 076°07'1314.6
2017-Feb-22 12:33N 36°56' W 075°56'9 9.3
2017-Feb-22 11:33N 36°50' W 075°47'3811.2
2017-Feb-22 08:10N 37°17' W 075°13'1216.1
2017-Feb-22 07:26N 37°27' W 075°06'1416.1
2017-Feb-22 06:33N 37°39' W 074°56'3516.2
2017-Feb-22 04:23N 38°09' W 074°33'1316.2
2017-Feb-22 03:33N 38°21' W 074°25'1616.4
2017-Feb-22 02:33N 38°36' W 074°18'1716.4
2017-Feb-22 01:32N 38°52' W 074°10'1616.1
2017-Feb-22 00:32N 39°07' W 074°03'1615.9
2017-Feb-21 23:33N 39°22' W 073°56'1615.9
2017-Feb-21 22:32N 39°38' W 073°53'1616.1
2017-Feb-21 21:33N 39°53' W 073°51'1715.1
2017-Feb-21 20:24N 40°11' W 073°50'8 9.6
2017-Feb-21 19:33N 40°19' W 073°49'9 8.7
2017-Feb-21 18:33N 40°27' W 073°51'1211.9
2017-Feb-21 17:33N 40°36' W 074°02'6 6.1
2017-Feb-21 16:34N 40°39' W 074°09'2 1.8
2017-Feb-21 15:32N 40°41' W 074°09'0 0.0
2017-Feb-21 14:32N 40°41' W 074°09'0 0.0
2017-Feb-21 13:33N 40°41' W 074°09'0 0.0
2017-Feb-21 12:31N 40°41' W 074°09'0 0.0
2017-Feb-21 11:31N 40°41' W 074°09'0 0.0
2017-Feb-21 10:32N 40°41' W 074°09'0 0.0
2017-Feb-21 09:33N 40°41' W 074°09'0 0.0
2017-Feb-21 08:33N 40°41' W 074°09'0 0.0
2017-Feb-21 07:31N 40°41' W 074°09'0 0.0
2017-Feb-21 06:32N 40°41' W 074°09'0 0.0
2017-Feb-21 05:32N 40°41' W 074°09'0 0.0
2017-Feb-21 04:33N 40°41' W 074°09'0 0.0
2017-Feb-21 03:34N 40°41' W 074°09'0 0.0
2017-Feb-21 02:31N 40°41' W 074°09'0 0.0
2017-Feb-21 01:33N 40°41' W 074°09'0 0.0
2017-Feb-21 00:31N 40°41' W 074°09'1 1.2
2017-Feb-20 23:33N 40°40' W 074°08'4 4.4
2017-Feb-20 22:33N 40°38' W 074°03'9 9.0
2017-Feb-20 21:33N 40°30' W 073°57'8 7.6
2017-Feb-20 20:33N 40°28' W 073°48'3 3.0
2017-Feb-20 19:33N 40°25' W 073°45'44817.5
2017-Feb-19 18:00N 39°30' W 064°06'12020.0 260 / 281006.810.8 18.011.718.8
2017-Feb-19 12:00N 39°00' W 061°36'36520.3 230 / 281009.810.8 18.515.116.7
2017-Feb-18 18:00N 37°48' W 054°00'12120.2 340 / 171008.910.8 15.0 9.217.9
2017-Feb-18 12:00N 37°24' W 051°30'29316.3 240 / 121009.810.8 16.5 6.318.4
2017-Feb-17 18:00N 35°12' W 046°06'12520.9 180 / 281013.2 5.4 20.518.918.5
2017-Feb-17 12:00N 34°30' W 043°42'35119.5 160 / 221022.410.8 20.017.618.5
2017-Feb-16 18:00N 34°24' W 036°36'37319.8 050 / 51026.010.8 20.014.019.1
2017-Feb-15 23:09N 37°55' W 030°15'1321.2
2017-Feb-15 22:33N 38°04' W 030°04'2121.2
2017-Feb-15 21:33N 38°19' W 029°45'2121.3
2017-Feb-15 20:33N 38°34' W 029°26'2121.1
2017-Feb-15 19:33N 38°49' W 029°07'2121.0
2017-Feb-15 18:33N 39°04' W 028°48'1221.0
2017-Feb-15 18:00N 39°12' W 028°36'921.7 190 / 181016.727.0 17.013.515.8
2017-Feb-15 17:33N 39°20' W 028°29'2121.4
2017-Feb-15 16:33N 39°36' W 028°10'2121.2
2017-Feb-15 15:34N 39°51' W 027°52'  
Track history (hours):
 
Tides and Currents Weather Stations Pressure Air Temp Water Temp Dewpoint Dewpoint Depression Visibility Wind Speed Wind Dir Waves Ship Positions

Maersk Missouri

Owner: MAERSK LINE, LIMITED, Norfolk, VA. More information available from US FCC via Universal Licensing System and Coast Guard Vessel Documentation Center.

Last reported at 2017-Feb-25 13:04 UTC. Time now 2017-Feb-25 13:59 UTC.
Position N 39°04' W 073°58'.

Type: Cargo ship. MMSI: 369708000.

Date/timePositionNaut miles runAvg speedWind from/ knotsBaromVisibWave heightAir tempDewpointWater temp
2017-Feb-25 13:04N 39°04' W 073°58'1121.3
2017-Feb-25 12:32N 38°54' W 074°04'1221.7
2017-Feb-25 12:00N 38°42' W 074°06'1023.6 140 / 121009.1 2.2 12.511.6 6.5
2017-Feb-25 11:33N 38°35' W 074°16'2421.2
2017-Feb-25 10:26N 38°14' W 074°30'6221.4
2017-Feb-25 07:33N 37°21' W 075°10'4314.4
2017-Feb-25 04:33N 36°49' W 075°47'9 9.2
2017-Feb-25 03:33N 36°55' W 075°56'19 9.7
2017-Feb-25 01:34N 36°54' W 076°20'3 3.0
2017-Feb-25 00:33N 36°51' W 076°19'0 0.0
2017-Feb-24 23:34N 36°51' W 076°19'0 0.0
2017-Feb-24 22:34N 36°51' W 076°19'0 0.0
2017-Feb-24 21:34N 36°51' W 076°19'0 0.0
2017-Feb-24 20:33N 36°51' W 076°19'0 0.0
2017-Feb-24 19:34N 36°51' W 076°19'0 0.0
2017-Feb-24 18:34N 36°51' W 076°19'0 0.0
2017-Feb-24 17:34N 36°51' W 076°19'0 0.0
2017-Feb-24 16:33N 36°51' W 076°19'0 0.0
2017-Feb-24 15:34N 36°51' W 076°19'0 0.0
2017-Feb-24 14:33N 36°51' W 076°19'0 0.0
2017-Feb-24 13:33N 36°51' W 076°19'0 0.0
2017-Feb-24 12:34N 36°51' W 076°19'0 0.0
2017-Feb-24 11:34N 36°51' W 076°19'0 0.0
2017-Feb-24 10:33N 36°51' W 076°19'0 0.0
2017-Feb-24 09:34N 36°51' W 076°19'0 0.0
2017-Feb-24 08:33N 36°51' W 076°19'0 0.0
2017-Feb-24 07:34N 36°51' W 076°19'0 0.0
2017-Feb-24 06:34N 36°51' W 076°19'0 0.0
2017-Feb-24 05:34N 36°51' W 076°19'0 0.0
2017-Feb-24 04:34N 36°51' W 076°19'0 0.0
2017-Feb-24 03:33N 36°51' W 076°19'0 0.0
2017-Feb-24 02:33N 36°51' W 076°19'0 0.0
2017-Feb-24 01:33N 36°51' W 076°19'0 0.0
2017-Feb-24 00:33N 36°51' W 076°19'0 0.0
2017-Feb-23 23:34N 36°51' W 076°19'0 0.0
2017-Feb-23 22:34N 36°51' W 076°19'0 0.0
2017-Feb-23 21:34N 36°51' W 076°19'0 0.4
2017-Feb-23 20:33N 36°52' W 076°19'10 8.7
2017-Feb-23 19:26N 36°60' W 076°13'910.9
2017-Feb-23 18:34N 36°60' W 076°01'10717.8
2017-Feb-23 12:33N 38°45' W 076°26'1818.3
2017-Feb-23 11:33N 39°03' W 076°23'10 9.8
2017-Feb-23 10:34N 39°11' W 076°29'5 4.7
2017-Feb-23 09:33N 39°15' W 076°33'0 0.1
2017-Feb-23 08:34N 39°15' W 076°33'0 0.0
2017-Feb-23 07:34N 39°15' W 076°33'0 0.0
2017-Feb-23 06:34N 39°15' W 076°33'0 0.0
2017-Feb-23 05:34N 39°15' W 076°33'0 0.0
2017-Feb-23 04:34N 39°15' W 076°33'0 0.0
2017-Feb-23 03:34N 39°15' W 076°33'0 0.0
2017-Feb-23 02:34N 39°15' W 076°33'0 0.0
2017-Feb-23 01:34N 39°15' W 076°33'0 0.0
2017-Feb-23 00:33N 39°15' W 076°33'0 0.0
2017-Feb-22 23:33N 39°15' W 076°33'0 0.0
2017-Feb-22 22:33N 39°15' W 076°33'0 0.0
2017-Feb-22 21:33N 39°15' W 076°33'4 4.3
2017-Feb-22 20:33N 39°12' W 076°29'1211.6
2017-Feb-22 19:33N 39°01' W 076°23'2119.1
2017-Feb-22 18:29N 38°41' W 076°25'4120.3
2017-Feb-22 16:29N 38°01' W 076°12'5618.3
2017-Feb-22 13:26N 37°06' W 076°07'1314.6
2017-Feb-22 12:33N 36°56' W 075°56'9 9.3
2017-Feb-22 11:33N 36°50' W 075°47'3811.2
2017-Feb-22 08:10N 37°17' W 075°13'1216.1
2017-Feb-22 07:26N 37°27' W 075°06'1416.1
2017-Feb-22 06:33N 37°39' W 074°56'3516.2
2017-Feb-22 04:23N 38°09' W 074°33'1316.2
2017-Feb-22 03:33N 38°21' W 074°25'1616.4
2017-Feb-22 02:33N 38°36' W 074°18'1716.4
2017-Feb-22 01:32N 38°52' W 074°10'1616.1
2017-Feb-22 00:32N 39°07' W 074°03'1615.9
2017-Feb-21 23:33N 39°22' W 073°56'1615.9
2017-Feb-21 22:32N 39°38' W 073°53'1616.1
2017-Feb-21 21:33N 39°53' W 073°51'1715.1
2017-Feb-21 20:24N 40°11' W 073°50'8 9.6
2017-Feb-21 19:33N 40°19' W 073°49'9 8.7
2017-Feb-21 18:33N 40°27' W 073°51'1211.9
2017-Feb-21 17:33N 40°36' W 074°02'6 6.1
2017-Feb-21 16:34N 40°39' W 074°09'2 1.8
2017-Feb-21 15:32N 40°41' W 074°09'0 0.0
2017-Feb-21 14:32N 40°41' W 074°09'0 0.0
2017-Feb-21 13:33N 40°41' W 074°09'0 0.0
2017-Feb-21 12:31N 40°41' W 074°09'0 0.0
2017-Feb-21 11:31N 40°41' W 074°09'0 0.0
2017-Feb-21 10:32N 40°41' W 074°09'0 0.0
2017-Feb-21 09:33N 40°41' W 074°09'0 0.0
2017-Feb-21 08:33N 40°41' W 074°09'0 0.0
2017-Feb-21 07:31N 40°41' W 074°09'0 0.0
2017-Feb-21 06:32N 40°41' W 074°09'0 0.0
2017-Feb-21 05:32N 40°41' W 074°09'0 0.0
2017-Feb-21 04:33N 40°41' W 074°09'0 0.0
2017-Feb-21 03:34N 40°41' W 074°09'0 0.0
2017-Feb-21 02:31N 40°41' W 074°09'0 0.0
2017-Feb-21 01:33N 40°41' W 074°09'0 0.0
2017-Feb-21 00:31N 40°41' W 074°09'1 1.2
2017-Feb-20 23:33N 40°40' W 074°08'4 4.4
2017-Feb-20 22:33N 40°38' W 074°03'9 9.0
2017-Feb-20 21:33N 40°30' W 073°57'8 7.6
2017-Feb-20 20:33N 40°28' W 073°48'3 3.0
2017-Feb-20 19:33N 40°25' W 073°45'44817.5
2017-Feb-19 18:00N 39°30' W 064°06'12020.0 260 / 281006.810.8 18.011.718.8
2017-Feb-19 12:00N 39°00' W 061°36'36520.3 230 / 281009.810.8 18.515.116.7
2017-Feb-18 18:00N 37°48' W 054°00'12120.2 340 / 171008.910.8 15.0 9.217.9
2017-Feb-18 12:00N 37°24' W 051°30'29316.3 240 / 121009.810.8 16.5 6.318.4
2017-Feb-17 18:00N 35°12' W 046°06'12520.9 180 / 281013.2 5.4 20.518.918.5
2017-Feb-17 12:00N 34°30' W 043°42'35119.5 160 / 221022.410.8 20.017.618.5
2017-Feb-16 18:00N 34°24' W 036°36'37319.8 050 / 51026.010.8 20.014.019.1
2017-Feb-15 23:09N 37°55' W 030°15'1321.2
2017-Feb-15 22:33N 38°04' W 030°04'2121.2
2017-Feb-15 21:33N 38°19' W 029°45'2121.3
2017-Feb-15 20:33N 38°34' W 029°26'2121.1
2017-Feb-15 19:33N 38°49' W 029°07'2121.0
2017-Feb-15 18:33N 39°04' W 028°48'1221.0
2017-Feb-15 18:00N 39°12' W 028°36'921.7 190 / 181016.727.0 17.013.515.8
2017-Feb-15 17:33N 39°20' W 028°29'2121.4
2017-Feb-15 16:33N 39°36' W 028°10'2121.2
2017-Feb-15 15:34N 39°51' W 027°52'  

Dump ship's entire track history